sensor_id;sensor_type;location;lat;lon;timestamp;P1;durP1;ratioP1;P2;durP2;ratioP2
45316;SDS011;31053;55.870;37.592;2022-11-20T00:01:55;16.17;;;7.82;;
45316;SDS011;31053;55.870;37.592;2022-11-20T00:05:00;20.67;;;8.60;;
45316;SDS011;31053;55.870;37.592;2022-11-20T00:08:05;23.60;;;9.32;;
45316;SDS011;31053;55.870;37.592;2022-11-20T00:11:10;13.75;;;7.97;;
45316;SDS011;31053;55.870;37.592;2022-11-20T00:14:16;24.45;;;10.48;;
45316;SDS011;31053;55.870;37.592;2022-11-20T00:17:21;22.83;;;9.27;;
45316;SDS011;31053;55.870;37.592;2022-11-20T00:20:25;19.95;;;8.85;;
45316;SDS011;31053;55.870;37.592;2022-11-20T00:23:30;23.52;;;8.88;;
45316;SDS011;31053;55.870;37.592;2022-11-20T00:26:35;25.25;;;9.38;;
45316;SDS011;31053;55.870;37.592;2022-11-20T00:29:40;17.55;;;8.25;;
45316;SDS011;31053;55.870;37.592;2022-11-20T00:32:45;14.77;;;8.18;;
45316;SDS011;31053;55.870;37.592;2022-11-20T00:44:37;21.52;;;9.38;;
45316;SDS011;31053;55.870;37.592;2022-11-20T00:47:42;15.18;;;7.40;;
45316;SDS011;31053;55.870;37.592;2022-11-20T00:50:46;16.05;;;8.05;;
45316;SDS011;31053;55.870;37.592;2022-11-20T00:53:50;16.98;;;8.18;;
45316;SDS011;31053;55.870;37.592;2022-11-20T00:56:55;14.25;;;6.47;;
45316;SDS011;31053;55.870;37.592;2022-11-20T01:00:02;16.52;;;8.15;;
45316;SDS011;31053;55.870;37.592;2022-11-20T01:03:07;16.65;;;6.68;;
45316;SDS011;31053;55.870;37.592;2022-11-20T01:06:13;13.77;;;7.75;;
45316;SDS011;31053;55.870;37.592;2022-11-20T01:09:20;20.60;;;8.85;;
45316;SDS011;31053;55.870;37.592;2022-11-20T01:12:34;12.30;;;5.60;;
45316;SDS011;31053;55.870;37.592;2022-11-20T01:20:49;17.42;;;7.53;;
45316;SDS011;31053;55.870;37.592;2022-11-20T01:23:53;13.88;;;6.47;;
45316;SDS011;31053;55.870;37.592;2022-11-20T01:26:58;11.85;;;6.15;;
45316;SDS011;31053;55.870;37.592;2022-11-20T01:30:03;15.95;;;7.50;;
45316;SDS011;31053;55.870;37.592;2022-11-20T01:33:08;16.08;;;7.32;;
45316;SDS011;31053;55.870;37.592;2022-11-20T01:36:12;16.67;;;7.50;;
45316;SDS011;31053;55.870;37.592;2022-11-20T01:39:18;18.73;;;8.23;;
45316;SDS011;31053;55.870;37.592;2022-11-20T01:42:25;14.57;;;7.38;;
45316;SDS011;31053;55.870;37.592;2022-11-20T01:49:34;12.98;;;6.30;;
45316;SDS011;31053;55.870;37.592;2022-11-20T01:52:43;10.60;;;4.32;;
45316;SDS011;31053;55.870;37.592;2022-11-20T01:55:56;15.18;;;5.85;;
45316;SDS011;31053;55.870;37.592;2022-11-20T01:59:02;10.35;;;5.18;;
45316;SDS011;31053;55.870;37.592;2022-11-20T02:02:09;13.85;;;6.75;;
45316;SDS011;31053;55.870;37.592;2022-11-20T02:08:38;19.90;;;6.63;;
45316;SDS011;31053;55.870;37.592;2022-11-20T02:11:43;13.13;;;5.55;;
45316;SDS011;31053;55.870;37.592;2022-11-20T02:14:47;12.38;;;5.90;;
45316;SDS011;31053;55.870;37.592;2022-11-20T02:17:51;17.85;;;6.95;;
45316;SDS011;31053;55.870;37.592;2022-11-20T02:21:01;12.27;;;5.28;;
45316;SDS011;31053;55.870;37.592;2022-11-20T02:27:24;12.32;;;6.13;;
45316;SDS011;31053;55.870;37.592;2022-11-20T02:30:28;11.75;;;5.85;;
45316;SDS011;31053;55.870;37.592;2022-11-20T02:33:33;11.23;;;5.53;;
45316;SDS011;31053;55.870;37.592;2022-11-20T02:36:55;15.07;;;6.72;;
45316;SDS011;31053;55.870;37.592;2022-11-20T02:46:46;17.58;;;6.57;;
45316;SDS011;31053;55.870;37.592;2022-11-20T02:49:50;12.55;;;5.78;;
45316;SDS011;31053;55.870;37.592;2022-11-20T02:52:55;16.75;;;7.22;;
45316;SDS011;31053;55.870;37.592;2022-11-20T02:56:00;19.75;;;7.20;;
45316;SDS011;31053;55.870;37.592;2022-11-20T02:59:04;15.25;;;6.05;;
45316;SDS011;31053;55.870;37.592;2022-11-20T03:02:08;7.60;;;4.00;;
45316;SDS011;31053;55.870;37.592;2022-11-20T03:05:13;8.02;;;3.75;;
45316;SDS011;31053;55.870;37.592;2022-11-20T03:08:18;13.63;;;5.60;;
45316;SDS011;31053;55.870;37.592;2022-11-20T03:11:23;11.70;;;5.20;;
45316;SDS011;31053;55.870;37.592;2022-11-20T03:14:27;16.00;;;6.80;;
45316;SDS011;31053;55.870;37.592;2022-11-20T03:17:32;16.65;;;7.28;;
45316;SDS011;31053;55.870;37.592;2022-11-20T03:20:36;14.15;;;6.28;;
45316;SDS011;31053;55.870;37.592;2022-11-20T03:23:41;17.15;;;7.03;;
45316;SDS011;31053;55.870;37.592;2022-11-20T03:26:51;19.33;;;7.28;;
45316;SDS011;31053;55.870;37.592;2022-11-20T03:40:23;10.95;;;5.60;;
45316;SDS011;31053;55.870;37.592;2022-11-20T03:47:06;6.70;;;3.38;;
45316;SDS011;31053;55.870;37.592;2022-11-20T03:50:11;11.30;;;5.70;;
45316;SDS011;31053;55.870;37.592;2022-11-20T03:53:18;14.63;;;6.35;;
45316;SDS011;31053;55.870;37.592;2022-11-20T03:56:24;12.88;;;6.60;;
45316;SDS011;31053;55.870;37.592;2022-11-20T03:59:32;15.85;;;6.60;;
45316;SDS011;31053;55.870;37.592;2022-11-20T04:02:37;12.10;;;4.78;;
45316;SDS011;31053;55.870;37.592;2022-11-20T04:05:41;10.43;;;5.32;;
45316;SDS011;31053;55.870;37.592;2022-11-20T04:08:45;16.00;;;7.03;;
45316;SDS011;31053;55.870;37.592;2022-11-20T04:11:50;12.35;;;6.05;;
45316;SDS011;31053;55.870;37.592;2022-11-20T04:14:54;10.43;;;5.57;;
45316;SDS011;31053;55.870;37.592;2022-11-20T04:17:59;16.98;;;7.38;;
45316;SDS011;31053;55.870;37.592;2022-11-20T04:21:04;16.08;;;7.10;;
45316;SDS011;31053;55.870;37.592;2022-11-20T04:24:09;15.25;;;7.10;;
45316;SDS011;31053;55.870;37.592;2022-11-20T04:27:17;18.55;;;7.18;;
45316;SDS011;31053;55.870;37.592;2022-11-20T04:30:21;17.60;;;7.72;;
45316;SDS011;31053;55.870;37.592;2022-11-20T04:33:26;21.40;;;7.30;;
45316;SDS011;31053;55.870;37.592;2022-11-20T04:36:31;17.88;;;7.43;;
45316;SDS011;31053;55.870;37.592;2022-11-20T04:39:35;14.80;;;7.38;;
45316;SDS011;31053;55.870;37.592;2022-11-20T04:42:39;15.73;;;7.43;;
45316;SDS011;31053;55.870;37.592;2022-11-20T04:45:50;18.58;;;6.97;;
45316;SDS011;31053;55.870;37.592;2022-11-20T04:48:57;13.93;;;5.00;;
45316;SDS011;31053;55.870;37.592;2022-11-20T04:52:02;18.67;;;8.18;;
45316;SDS011;31053;55.870;37.592;2022-11-20T04:55:07;17.67;;;7.55;;
45316;SDS011;31053;55.870;37.592;2022-11-20T04:58:12;16.48;;;7.88;;
45316;SDS011;31053;55.870;37.592;2022-11-20T05:01:19;15.38;;;7.00;;
45316;SDS011;31053;55.870;37.592;2022-11-20T05:04:27;16.63;;;6.80;;
45316;SDS011;31053;55.870;37.592;2022-11-20T05:07:31;13.00;;;4.93;;
45316;SDS011;31053;55.870;37.592;2022-11-20T05:10:36;14.63;;;6.65;;
45316;SDS011;31053;55.870;37.592;2022-11-20T05:13:41;14.85;;;5.78;;
45316;SDS011;31053;55.870;37.592;2022-11-20T05:19:51;12.23;;;4.75;;
45316;SDS011;31053;55.870;37.592;2022-11-20T05:22:58;18.48;;;7.57;;
45316;SDS011;31053;55.870;37.592;2022-11-20T05:26:03;19.02;;;6.78;;
45316;SDS011;31053;55.870;37.592;2022-11-20T05:29:10;17.50;;;7.00;;
45316;SDS011;31053;55.870;37.592;2022-11-20T05:32:17;21.23;;;8.43;;
45316;SDS011;31053;55.870;37.592;2022-11-20T05:35:22;17.15;;;7.63;;
45316;SDS011;31053;55.870;37.592;2022-11-20T05:38:26;14.60;;;7.40;;
45316;SDS011;31053;55.870;37.592;2022-11-20T05:41:32;14.65;;;6.95;;
45316;SDS011;31053;55.870;37.592;2022-11-20T05:44:37;14.05;;;7.25;;
45316;SDS011;31053;55.870;37.592;2022-11-20T05:47:41;19.20;;;7.60;;
45316;SDS011;31053;55.870;37.592;2022-11-20T05:50:46;15.60;;;7.07;;
45316;SDS011;31053;55.870;37.592;2022-11-20T05:53:51;15.88;;;6.85;;
45316;SDS011;31053;55.870;37.592;2022-11-20T05:56:56;16.10;;;7.55;;
45316;SDS011;31053;55.870;37.592;2022-11-20T06:00:01;20.30;;;9.00;;
45316;SDS011;31053;55.870;37.592;2022-11-20T06:03:09;17.27;;;8.32;;
45316;SDS011;31053;55.870;37.592;2022-11-20T06:06:17;12.88;;;7.20;;
45316;SDS011;31053;55.870;37.592;2022-11-20T06:09:22;17.92;;;7.82;;
45316;SDS011;31053;55.870;37.592;2022-11-20T06:12:26;19.45;;;7.75;;
45316;SDS011;31053;55.870;37.592;2022-11-20T06:15:31;20.88;;;8.25;;
45316;SDS011;31053;55.870;37.592;2022-11-20T06:18:36;18.27;;;8.20;;
45316;SDS011;31053;55.870;37.592;2022-11-20T06:21:41;20.23;;;8.90;;
45316;SDS011;31053;55.870;37.592;2022-11-20T06:24:45;21.70;;;8.88;;
45316;SDS011;31053;55.870;37.592;2022-11-20T06:27:50;26.40;;;7.72;;
45316;SDS011;31053;55.870;37.592;2022-11-20T06:30:54;19.10;;;8.27;;
45316;SDS011;31053;55.870;37.592;2022-11-20T06:33:58;20.58;;;8.63;;
45316;SDS011;31053;55.870;37.592;2022-11-20T06:37:03;21.70;;;9.00;;
45316;SDS011;31053;55.870;37.592;2022-11-20T06:40:08;20.63;;;8.93;;
45316;SDS011;31053;55.870;37.592;2022-11-20T06:43:13;18.77;;;8.68;;
45316;SDS011;31053;55.870;37.592;2022-11-20T06:46:18;15.90;;;7.15;;
45316;SDS011;31053;55.870;37.592;2022-11-20T06:49:24;20.20;;;9.57;;
45316;SDS011;31053;55.870;37.592;2022-11-20T06:52:29;21.48;;;10.10;;
45316;SDS011;31053;55.870;37.592;2022-11-20T06:55:34;20.20;;;8.48;;
45316;SDS011;31053;55.870;37.592;2022-11-20T06:58:38;18.85;;;8.48;;
45316;SDS011;31053;55.870;37.592;2022-11-20T07:01:43;23.17;;;8.93;;
45316;SDS011;31053;55.870;37.592;2022-11-20T07:04:47;19.83;;;9.48;;
45316;SDS011;31053;55.870;37.592;2022-11-20T07:07:55;20.60;;;9.07;;
45316;SDS011;31053;55.870;37.592;2022-11-20T07:11:00;17.20;;;9.02;;
45316;SDS011;31053;55.870;37.592;2022-11-20T07:14:07;17.65;;;8.70;;
45316;SDS011;31053;55.870;37.592;2022-11-20T07:17:11;18.98;;;8.30;;
45316;SDS011;31053;55.870;37.592;2022-11-20T07:20:16;18.65;;;8.15;;
45316;SDS011;31053;55.870;37.592;2022-11-20T07:23:21;17.98;;;8.18;;
45316;SDS011;31053;55.870;37.592;2022-11-20T07:26:26;21.02;;;7.50;;
45316;SDS011;31053;55.870;37.592;2022-11-20T07:29:31;21.00;;;9.43;;
45316;SDS011;31053;55.870;37.592;2022-11-20T07:32:37;19.90;;;10.05;;
45316;SDS011;31053;55.870;37.592;2022-11-20T07:35:52;14.65;;;7.10;;
45316;SDS011;31053;55.870;37.592;2022-11-20T07:38:56;14.40;;;7.35;;
45316;SDS011;31053;55.870;37.592;2022-11-20T07:42:01;16.55;;;7.38;;
45316;SDS011;31053;55.870;37.592;2022-11-20T07:45:06;19.00;;;9.23;;
45316;SDS011;31053;55.870;37.592;2022-11-20T07:48:11;17.50;;;7.82;;
45316;SDS011;31053;55.870;37.592;2022-11-20T07:51:17;14.27;;;7.00;;
45316;SDS011;31053;55.870;37.592;2022-11-20T07:54:22;17.45;;;8.63;;
45316;SDS011;31053;55.870;37.592;2022-11-20T07:57:27;16.27;;;7.32;;
45316;SDS011;31053;55.870;37.592;2022-11-20T08:00:31;19.65;;;7.75;;
45316;SDS011;31053;55.870;37.592;2022-11-20T08:03:35;16.83;;;8.35;;
45316;SDS011;31053;55.870;37.592;2022-11-20T08:06:41;10.40;;;4.88;;
45316;SDS011;31053;55.870;37.592;2022-11-20T08:09:46;14.40;;;7.40;;
45316;SDS011;31053;55.870;37.592;2022-11-20T08:12:51;21.75;;;10.05;;
45316;SDS011;31053;55.870;37.592;2022-11-20T08:16:17;19.63;;;8.77;;
45316;SDS011;31053;55.870;37.592;2022-11-20T08:19:24;14.70;;;6.78;;
45316;SDS011;31053;55.870;37.592;2022-11-20T08:22:29;17.88;;;7.78;;
45316;SDS011;31053;55.870;37.592;2022-11-20T08:25:34;22.08;;;9.15;;
45316;SDS011;31053;55.870;37.592;2022-11-20T08:28:40;20.33;;;9.40;;
45316;SDS011;31053;55.870;37.592;2022-11-20T08:31:45;16.80;;;8.48;;
45316;SDS011;31053;55.870;37.592;2022-11-20T08:34:49;16.40;;;7.97;;
45316;SDS011;31053;55.870;37.592;2022-11-20T08:37:54;13.23;;;5.85;;
45316;SDS011;31053;55.870;37.592;2022-11-20T08:40:59;13.60;;;6.35;;
45316;SDS011;31053;55.870;37.592;2022-11-20T08:44:23;22.25;;;9.70;;
45316;SDS011;31053;55.870;37.592;2022-11-20T08:47:27;18.20;;;8.13;;
45316;SDS011;31053;55.870;37.592;2022-11-20T08:50:32;16.85;;;6.85;;
45316;SDS011;31053;55.870;37.592;2022-11-20T08:53:38;20.63;;;8.68;;
45316;SDS011;31053;55.870;37.592;2022-11-20T08:56:45;17.23;;;9.35;;
45316;SDS011;31053;55.870;37.592;2022-11-20T08:59:50;36.58;;;11.73;;
45316;SDS011;31053;55.870;37.592;2022-11-20T09:02:57;17.05;;;8.55;;
45316;SDS011;31053;55.870;37.592;2022-11-20T09:06:03;18.98;;;8.30;;
45316;SDS011;31053;55.870;37.592;2022-11-20T09:09:10;18.92;;;8.05;;
45316;SDS011;31053;55.870;37.592;2022-11-20T09:12:15;19.65;;;9.45;;
45316;SDS011;31053;55.870;37.592;2022-11-20T09:15:20;17.70;;;8.70;;
45316;SDS011;31053;55.870;37.592;2022-11-20T09:18:25;25.05;;;10.13;;
45316;SDS011;31053;55.870;37.592;2022-11-20T09:21:30;31.08;;;12.80;;
45316;SDS011;31053;55.870;37.592;2022-11-20T09:24:34;20.65;;;10.13;;
45316;SDS011;31053;55.870;37.592;2022-11-20T09:27:39;22.05;;;8.85;;
45316;SDS011;31053;55.870;37.592;2022-11-20T09:30:47;21.00;;;8.75;;
45316;SDS011;31053;55.870;37.592;2022-11-20T09:33:52;23.08;;;11.07;;
45316;SDS011;31053;55.870;37.592;2022-11-20T09:37:00;26.52;;;10.93;;
45316;SDS011;31053;55.870;37.592;2022-11-20T09:40:06;20.75;;;9.43;;
45316;SDS011;31053;55.870;37.592;2022-11-20T09:43:18;19.88;;;7.93;;
45316;SDS011;31053;55.870;37.592;2022-11-20T09:49:51;19.52;;;7.68;;
45316;SDS011;31053;55.870;37.592;2022-11-20T09:56:59;23.30;;;9.32;;
45316;SDS011;31053;55.870;37.592;2022-11-20T10:04:34;20.25;;;8.88;;
45316;SDS011;31053;55.870;37.592;2022-11-20T10:08:22;35.08;;;13.13;;
45316;SDS011;31053;55.870;37.592;2022-11-20T10:11:46;26.90;;;10.07;;
45316;SDS011;31053;55.870;37.592;2022-11-20T10:25:19;27.55;;;11.57;;
45316;SDS011;31053;55.870;37.592;2022-11-20T10:28:37;31.90;;;12.20;;
45316;SDS011;31053;55.870;37.592;2022-11-20T10:31:56;18.13;;;7.93;;
45316;SDS011;31053;55.870;37.592;2022-11-20T10:38:19;22.10;;;8.70;;
45316;SDS011;31053;55.870;37.592;2022-11-20T10:41:27;30.08;;;11.10;;
45316;SDS011;31053;55.870;37.592;2022-11-20T10:44:34;19.08;;;9.18;;
45316;SDS011;31053;55.870;37.592;2022-11-20T10:55:26;29.08;;;11.27;;
45316;SDS011;31053;55.870;37.592;2022-11-20T11:01:52;47.85;;;16.90;;
45316;SDS011;31053;55.870;37.592;2022-11-20T11:10:28;31.05;;;12.80;;
45316;SDS011;31053;55.870;37.592;2022-11-20T11:13:47;19.85;;;8.20;;
45316;SDS011;31053;55.870;37.592;2022-11-20T11:16:56;23.88;;;8.20;;
45316;SDS011;31053;55.870;37.592;2022-11-20T11:20:14;32.83;;;11.73;;
45316;SDS011;31053;55.870;37.592;2022-11-20T11:23:29;31.50;;;12.40;;
45316;SDS011;31053;55.870;37.592;2022-11-20T11:26:37;27.73;;;11.63;;
45316;SDS011;31053;55.870;37.592;2022-11-20T11:29:44;28.25;;;13.77;;
45316;SDS011;31053;55.870;37.592;2022-11-20T11:32:50;35.25;;;14.65;;
45316;SDS011;31053;55.870;37.592;2022-11-20T11:35:55;35.78;;;13.38;;
45316;SDS011;31053;55.870;37.592;2022-11-20T11:39:05;24.70;;;11.75;;
45316;SDS011;31053;55.870;37.592;2022-11-20T11:42:18;22.98;;;9.00;;
45316;SDS011;31053;55.870;37.592;2022-11-20T11:45:23;23.27;;;10.13;;
45316;SDS011;31053;55.870;37.592;2022-11-20T11:48:34;22.90;;;9.50;;
45316;SDS011;31053;55.870;37.592;2022-11-20T11:55:03;23.73;;;10.25;;
45316;SDS011;31053;55.870;37.592;2022-11-20T12:01:41;24.42;;;9.55;;
45316;SDS011;31053;55.870;37.592;2022-11-20T12:05:15;24.77;;;9.05;;
45316;SDS011;31053;55.870;37.592;2022-11-20T12:08:43;22.23;;;10.77;;
45316;SDS011;31053;55.870;37.592;2022-11-20T12:15:00;15.35;;;7.70;;
45316;SDS011;31053;55.870;37.592;2022-11-20T12:18:09;30.92;;;9.60;;
45316;SDS011;31053;55.870;37.592;2022-11-20T12:21:21;24.58;;;8.85;;
45316;SDS011;31053;55.870;37.592;2022-11-20T12:38:42;18.77;;;7.75;;
45316;SDS011;31053;55.870;37.592;2022-11-20T12:55:02;20.00;;;7.43;;
45316;SDS011;31053;55.870;37.592;2022-11-20T13:09:11;16.85;;;8.05;;
45316;SDS011;31053;55.870;37.592;2022-11-20T13:12:25;20.40;;;9.15;;
45316;SDS011;31053;55.870;37.592;2022-11-20T13:16:13;18.98;;;8.30;;
45316;SDS011;31053;55.870;37.592;2022-11-20T13:19:12;17.58;;;8.50;;
45316;SDS011;31053;55.870;37.592;2022-11-20T13:22:26;19.63;;;8.93;;
45316;SDS011;31053;55.870;37.592;2022-11-20T13:25:42;28.13;;;11.93;;
45316;SDS011;31053;55.870;37.592;2022-11-20T13:32:17;18.40;;;8.07;;
45316;SDS011;31053;55.870;37.592;2022-11-20T13:35:26;11.93;;;6.65;;
45316;SDS011;31053;55.870;37.592;2022-11-20T13:38:51;13.95;;;6.65;;
45316;SDS011;31053;55.870;37.592;2022-11-20T13:41:58;16.83;;;8.57;;
45316;SDS011;31053;55.870;37.592;2022-11-20T13:45:29;13.02;;;6.93;;
45316;SDS011;31053;55.870;37.592;2022-11-20T13:48:39;23.40;;;9.85;;
45316;SDS011;31053;55.870;37.592;2022-11-20T14:08:49;14.02;;;5.72;;
45316;SDS011;31053;55.870;37.592;2022-11-20T14:11:54;14.20;;;6.35;;
45316;SDS011;31053;55.870;37.592;2022-11-20T14:15:02;17.33;;;7.47;;
45316;SDS011;31053;55.870;37.592;2022-11-20T14:18:33;16.05;;;8.43;;
45316;SDS011;31053;55.870;37.592;2022-11-20T14:25:29;21.05;;;8.07;;
45316;SDS011;31053;55.870;37.592;2022-11-20T14:28:43;14.32;;;7.68;;
45316;SDS011;31053;55.870;37.592;2022-11-20T14:32:09;19.38;;;8.55;;
45316;SDS011;31053;55.870;37.592;2022-11-20T14:39:03;13.93;;;7.38;;
45316;SDS011;31053;55.870;37.592;2022-11-20T14:42:31;22.95;;;8.10;;
45316;SDS011;31053;55.870;37.592;2022-11-20T14:45:41;19.70;;;8.75;;
45316;SDS011;31053;55.870;37.592;2022-11-20T14:48:49;23.67;;;7.95;;
45316;SDS011;31053;55.870;37.592;2022-11-20T14:51:59;14.40;;;6.68;;
45316;SDS011;31053;55.870;37.592;2022-11-20T14:55:05;21.10;;;8.05;;
45316;SDS011;31053;55.870;37.592;2022-11-20T14:58:24;18.17;;;7.53;;
45316;SDS011;31053;55.870;37.592;2022-11-20T15:01:38;13.90;;;6.50;;
45316;SDS011;31053;55.870;37.592;2022-11-20T15:04:49;16.35;;;7.20;;
45316;SDS011;31053;55.870;37.592;2022-11-20T15:08:05;15.13;;;6.18;;
45316;SDS011;31053;55.870;37.592;2022-11-20T15:11:19;11.07;;;5.05;;
45316;SDS011;31053;55.870;37.592;2022-11-20T15:14:36;17.17;;;6.97;;
45316;SDS011;31053;55.870;37.592;2022-11-20T15:17:44;13.65;;;6.32;;
45316;SDS011;31053;55.870;37.592;2022-11-20T15:20:50;23.48;;;9.98;;
45316;SDS011;31053;55.870;37.592;2022-11-20T15:23:56;20.27;;;8.75;;
45316;SDS011;31053;55.870;37.592;2022-11-20T15:27:14;16.27;;;7.88;;
45316;SDS011;31053;55.870;37.592;2022-11-20T15:30:33;15.73;;;7.43;;
45316;SDS011;31053;55.870;37.592;2022-11-20T15:35:18;29.45;;;7.47;;
45316;SDS011;31053;55.870;37.592;2022-11-20T15:38:23;18.70;;;8.43;;
45316;SDS011;31053;55.870;37.592;2022-11-20T15:41:28;17.02;;;8.32;;
45316;SDS011;31053;55.870;37.592;2022-11-20T15:44:33;29.92;;;12.98;;
45316;SDS011;31053;55.870;37.592;2022-11-20T15:47:45;23.73;;;10.52;;
45316;SDS011;31053;55.870;37.592;2022-11-20T15:54:17;29.10;;;10.50;;
45316;SDS011;31053;55.870;37.592;2022-11-20T15:57:29;17.52;;;7.40;;
45316;SDS011;31053;55.870;37.592;2022-11-20T16:04:28;16.80;;;6.68;;
45316;SDS011;31053;55.870;37.592;2022-11-20T16:07:33;18.27;;;7.65;;
45316;SDS011;31053;55.870;37.592;2022-11-20T16:10:38;15.10;;;6.68;;
45316;SDS011;31053;55.870;37.592;2022-11-20T16:13:44;13.07;;;5.68;;
45316;SDS011;31053;55.870;37.592;2022-11-20T16:17:35;9.38;;;4.80;;
45316;SDS011;31053;55.870;37.592;2022-11-20T16:20:54;9.90;;;5.40;;
45316;SDS011;31053;55.870;37.592;2022-11-20T16:24:00;20.50;;;7.75;;
45316;SDS011;31053;55.870;37.592;2022-11-20T16:27:06;13.50;;;7.00;;
45316;SDS011;31053;55.870;37.592;2022-11-20T16:30:11;11.93;;;5.53;;
45316;SDS011;31053;55.870;37.592;2022-11-20T16:33:16;10.40;;;5.70;;
45316;SDS011;31053;55.870;37.592;2022-11-20T16:36:24;15.80;;;6.78;;
45316;SDS011;31053;55.870;37.592;2022-11-20T16:39:31;12.60;;;5.72;;
45316;SDS011;31053;55.870;37.592;2022-11-20T16:42:36;16.17;;;7.13;;
45316;SDS011;31053;55.870;37.592;2022-11-20T16:45:45;14.13;;;6.35;;
45316;SDS011;31053;55.870;37.592;2022-11-20T16:49:05;8.38;;;4.32;;
45316;SDS011;31053;55.870;37.592;2022-11-20T16:52:10;7.05;;;3.70;;
45316;SDS011;31053;55.870;37.592;2022-11-20T16:55:15;18.27;;;7.70;;
45316;SDS011;31053;55.870;37.592;2022-11-20T17:03:11;9.55;;;4.82;;
45316;SDS011;31053;55.870;37.592;2022-11-20T17:09:32;9.27;;;4.78;;
45316;SDS011;31053;55.870;37.592;2022-11-20T17:12:49;12.15;;;5.38;;
45316;SDS011;31053;55.870;37.592;2022-11-20T17:16:35;17.60;;;8.57;;
45316;SDS011;31053;55.870;37.592;2022-11-20T17:19:40;12.55;;;4.70;;
45316;SDS011;31053;55.870;37.592;2022-11-20T17:26:05;15.30;;;8.32;;
45316;SDS011;31053;55.870;37.592;2022-11-20T17:29:15;14.75;;;6.70;;
45316;SDS011;31053;55.870;37.592;2022-11-20T17:32:22;14.90;;;6.25;;
45316;SDS011;31053;55.870;37.592;2022-11-20T17:35:30;9.18;;;5.25;;
45316;SDS011;31053;55.870;37.592;2022-11-20T17:38:38;7.35;;;4.28;;
45316;SDS011;31053;55.870;37.592;2022-11-20T17:41:46;14.05;;;5.85;;
45316;SDS011;31053;55.870;37.592;2022-11-20T17:45:11;9.85;;;5.03;;
45316;SDS011;31053;55.870;37.592;2022-11-20T17:48:17;20.08;;;8.95;;
45316;SDS011;31053;55.870;37.592;2022-11-20T17:51:23;11.45;;;6.10;;
45316;SDS011;31053;55.870;37.592;2022-11-20T17:54:28;18.30;;;8.40;;
45316;SDS011;31053;55.870;37.592;2022-11-20T17:57:33;13.52;;;5.75;;
45316;SDS011;31053;55.870;37.592;2022-11-20T18:01:11;19.65;;;9.38;;
45316;SDS011;31053;55.870;37.592;2022-11-20T18:04:21;11.45;;;5.90;;
45316;SDS011;31053;55.870;37.592;2022-11-20T18:07:41;12.13;;;6.22;;
45316;SDS011;31053;55.870;37.592;2022-11-20T18:10:53;9.82;;;4.53;;
45316;SDS011;31053;55.870;37.592;2022-11-20T18:14:01;9.07;;;4.03;;
45316;SDS011;31053;55.870;37.592;2022-11-20T18:17:32;16.38;;;6.82;;
45316;SDS011;31053;55.870;37.592;2022-11-20T18:20:40;7.25;;;3.53;;
45316;SDS011;31053;55.870;37.592;2022-11-20T18:23:45;10.77;;;5.03;;
45316;SDS011;31053;55.870;37.592;2022-11-20T18:26:54;7.90;;;4.85;;
45316;SDS011;31053;55.870;37.592;2022-11-20T18:30:00;8.05;;;4.68;;
45316;SDS011;31053;55.870;37.592;2022-11-20T18:33:08;12.88;;;6.38;;
45316;SDS011;31053;55.870;37.592;2022-11-20T18:36:20;13.65;;;7.15;;
45316;SDS011;31053;55.870;37.592;2022-11-20T18:39:29;16.50;;;6.63;;
45316;SDS011;31053;55.870;37.592;2022-11-20T18:42:35;15.13;;;7.18;;
45316;SDS011;31053;55.870;37.592;2022-11-20T18:46:02;18.35;;;7.65;;
45316;SDS011;31053;55.870;37.592;2022-11-20T18:49:10;7.28;;;3.90;;
45316;SDS011;31053;55.870;37.592;2022-11-20T18:52:15;15.95;;;7.00;;
45316;SDS011;31053;55.870;37.592;2022-11-20T18:55:21;20.83;;;7.25;;
45316;SDS011;31053;55.870;37.592;2022-11-20T18:58:28;10.15;;;5.30;;
45316;SDS011;31053;55.870;37.592;2022-11-20T19:01:33;13.57;;;5.95;;
45316;SDS011;31053;55.870;37.592;2022-11-20T19:04:41;15.57;;;6.35;;
45316;SDS011;31053;55.870;37.592;2022-11-20T19:07:49;10.20;;;4.75;;
45316;SDS011;31053;55.870;37.592;2022-11-20T19:10:54;21.23;;;7.47;;
45316;SDS011;31053;55.870;37.592;2022-11-20T19:13:58;24.52;;;9.93;;
45316;SDS011;31053;55.870;37.592;2022-11-20T19:17:07;20.27;;;7.85;;
45316;SDS011;31053;55.870;37.592;2022-11-20T19:20:14;19.15;;;7.38;;
45316;SDS011;31053;55.870;37.592;2022-11-20T19:23:18;17.95;;;7.22;;
45316;SDS011;31053;55.870;37.592;2022-11-20T19:26:25;24.85;;;9.50;;
45316;SDS011;31053;55.870;37.592;2022-11-20T19:29:30;14.23;;;4.97;;
45316;SDS011;31053;55.870;37.592;2022-11-20T19:32:35;21.70;;;8.05;;
45316;SDS011;31053;55.870;37.592;2022-11-20T19:40:27;18.65;;;7.47;;
45316;SDS011;31053;55.870;37.592;2022-11-20T19:44:09;25.17;;;7.90;;
45316;SDS011;31053;55.870;37.592;2022-11-20T19:47:17;31.67;;;10.75;;
45316;SDS011;31053;55.870;37.592;2022-11-20T19:50:25;25.58;;;9.93;;
45316;SDS011;31053;55.870;37.592;2022-11-20T19:53:30;20.40;;;8.32;;
45316;SDS011;31053;55.870;37.592;2022-11-20T19:56:35;24.35;;;9.05;;
45316;SDS011;31053;55.870;37.592;2022-11-20T19:59:41;22.80;;;10.10;;
45316;SDS011;31053;55.870;37.592;2022-11-20T20:02:48;23.25;;;8.77;;
45316;SDS011;31053;55.870;37.592;2022-11-20T20:11:38;36.63;;;13.52;;
45316;SDS011;31053;55.870;37.592;2022-11-20T20:15:19;22.52;;;8.18;;
45316;SDS011;31053;55.870;37.592;2022-11-20T20:18:24;32.30;;;10.10;;
45316;SDS011;31053;55.870;37.592;2022-11-20T20:21:29;27.88;;;10.40;;
45316;SDS011;31053;55.870;37.592;2022-11-20T20:24:35;20.98;;;8.85;;
45316;SDS011;31053;55.870;37.592;2022-11-20T20:27:40;26.17;;;11.15;;
45316;SDS011;31053;55.870;37.592;2022-11-20T20:30:45;44.50;;;15.45;;
45316;SDS011;31053;55.870;37.592;2022-11-20T20:33:52;28.13;;;10.48;;
45316;SDS011;31053;55.870;37.592;2022-11-20T20:37:00;16.83;;;7.88;;
45316;SDS011;31053;55.870;37.592;2022-11-20T20:40:20;18.50;;;7.65;;
45316;SDS011;31053;55.870;37.592;2022-11-20T20:43:25;24.40;;;9.70;;
45316;SDS011;31053;55.870;37.592;2022-11-20T20:52:05;35.88;;;12.30;;
45316;SDS011;31053;55.870;37.592;2022-11-20T21:05:06;18.17;;;7.22;;
45316;SDS011;31053;55.870;37.592;2022-11-20T21:08:11;27.88;;;12.93;;
45316;SDS011;31053;55.870;37.592;2022-11-20T21:11:50;23.02;;;9.07;;
45316;SDS011;31053;55.870;37.592;2022-11-20T21:14:55;26.33;;;10.25;;
45316;SDS011;31053;55.870;37.592;2022-11-20T21:18:00;30.67;;;13.52;;
45316;SDS011;31053;55.870;37.592;2022-11-20T21:21:05;29.92;;;10.88;;
45316;SDS011;31053;55.870;37.592;2022-11-20T21:24:33;31.75;;;12.55;;
45316;SDS011;31053;55.870;37.592;2022-11-20T21:27:41;15.15;;;7.40;;
45316;SDS011;31053;55.870;37.592;2022-11-20T21:30:49;22.02;;;8.52;;
45316;SDS011;31053;55.870;37.592;2022-11-20T21:33:54;20.70;;;8.57;;
45316;SDS011;31053;55.870;37.592;2022-11-20T21:36:59;28.77;;;7.97;;
45316;SDS011;31053;55.870;37.592;2022-11-20T21:40:04;12.75;;;6.60;;
45316;SDS011;31053;55.870;37.592;2022-11-20T21:43:09;14.65;;;6.07;;
45316;SDS011;31053;55.870;37.592;2022-11-20T21:46:15;28.27;;;8.25;;
45316;SDS011;31053;55.870;37.592;2022-11-20T21:49:24;26.67;;;9.63;;
45316;SDS011;31053;55.870;37.592;2022-11-20T21:52:29;20.33;;;7.00;;
45316;SDS011;31053;55.870;37.592;2022-11-20T21:55:34;27.98;;;10.23;;